createdAt,value
2023-05-04T00:01:18.509Z,2.53
2023-05-04T00:03:46.397Z,2.30
2023-05-04T00:06:14.345Z,2.40
2023-05-04T00:08:41.934Z,2.30
2023-05-04T00:11:09.541Z,2.43
2023-05-04T00:13:37.138Z,2.67
2023-05-04T00:16:07.973Z,2.70
2023-05-04T00:18:37.523Z,2.83
2023-05-04T00:21:05.189Z,2.57
2023-05-04T00:23:32.770Z,2.33
2023-05-04T00:26:00.519Z,2.90
2023-05-04T00:28:28.281Z,2.70
2023-05-04T00:30:56.117Z,2.50
2023-05-04T00:33:25.133Z,2.50
2023-05-04T00:35:55.127Z,2.40
2023-05-04T00:38:22.689Z,2.87
2023-05-04T00:40:50.446Z,2.67
2023-05-04T00:43:18.024Z,2.23
2023-05-04T00:45:45.581Z,2.90
2023-05-04T00:48:13.236Z,2.33
2023-05-04T00:50:42.632Z,2.80
2023-05-04T00:53:11.832Z,2.37
2023-05-04T00:55:40.799Z,2.13
2023-05-04T00:58:09.005Z,2.10
2023-05-04T01:00:37.042Z,2.63
2023-05-04T01:03:04.860Z,2.60
2023-05-04T01:05:36.184Z,2.63
2023-05-04T01:08:09.480Z,2.70
2023-05-04T01:10:41.510Z,2.43
2023-05-04T01:13:12.793Z,2.50
2023-05-04T01:15:41.007Z,2.47
2023-05-04T01:18:08.770Z,2.40
2023-05-04T01:20:37.010Z,2.43
2023-05-04T01:23:06.846Z,2.93
2023-05-04T01:25:39.058Z,2.57
2023-05-04T01:28:09.311Z,2.50
2023-05-04T01:30:38.758Z,2.70
2023-05-04T01:33:07.136Z,2.57
2023-05-04T01:35:34.838Z,3.10
2023-05-04T01:38:02.569Z,2.70
2023-05-04T01:40:31.583Z,2.60
2023-05-04T01:42:59.316Z,3.03
2023-05-04T01:45:26.936Z,2.57
2023-05-04T01:47:54.683Z,2.60
2023-05-04T01:50:22.326Z,2.47
2023-05-04T01:52:50.732Z,2.50
2023-05-04T01:55:18.328Z,2.30
2023-05-04T01:57:47.280Z,2.53
2023-05-04T02:00:16.393Z,2.70
2023-05-04T02:02:44.170Z,2.80
2023-05-04T02:05:11.777Z,2.30
2023-05-04T02:07:39.325Z,2.40
2023-05-04T02:10:08.701Z,2.50
2023-05-04T02:12:36.413Z,2.20
2023-05-04T02:15:06.169Z,3.07
2023-05-04T02:17:33.711Z,2.53
2023-05-04T02:20:01.408Z,2.43
2023-05-04T02:22:29.008Z,2.10
2023-05-04T02:24:56.647Z,2.40
2023-05-04T02:27:24.359Z,3.17
2023-05-04T02:29:51.994Z,2.70
2023-05-04T02:32:20.933Z,2.40
2023-05-04T02:34:48.529Z,2.57
2023-05-04T02:37:16.336Z,2.70
2023-05-04T02:39:44.031Z,2.33
2023-05-04T02:42:11.583Z,2.87
2023-05-04T02:44:39.131Z,2.90
2023-05-04T02:47:06.884Z,2.40
2023-05-04T02:49:35.843Z,2.37
2023-05-04T02:52:03.443Z,2.67
2023-05-04T02:54:30.998Z,3.00
2023-05-04T02:56:58.604Z,2.40
2023-05-04T02:59:26.183Z,2.77
2023-05-04T03:01:53.823Z,2.53
2023-05-04T03:04:21.604Z,3.07
2023-05-04T03:06:50.756Z,2.70
2023-05-04T03:09:18.325Z,2.87
2023-05-04T03:11:45.960Z,2.90
2023-05-04T03:14:13.488Z,2.73
2023-05-04T03:16:41.413Z,2.80
2023-05-04T03:19:09.028Z,3.10
2023-05-04T03:21:36.643Z,3.00
2023-05-04T03:24:06.165Z,2.90
2023-05-04T03:26:33.812Z,2.90
2023-05-04T03:29:01.384Z,3.03
2023-05-04T03:31:29.095Z,2.73
2023-05-04T03:33:56.739Z,2.87
2023-05-04T03:36:24.317Z,2.87
2023-05-04T03:38:51.863Z,3.13
2023-05-04T03:41:20.779Z,2.77
2023-05-04T03:43:48.430Z,3.37
2023-05-04T03:46:16.164Z,2.80
2023-05-04T03:48:43.817Z,3.23
2023-05-04T03:51:11.702Z,3.20
2023-05-04T03:53:39.302Z,3.33
2023-05-04T03:56:07.533Z,3.10
2023-05-04T03:58:36.449Z,3.60
2023-05-04T04:01:04.450Z,3.03
2023-05-04T04:03:32.957Z,3.00
2023-05-04T04:06:01.704Z,3.37
2023-05-04T04:08:29.280Z,3.20
2023-05-04T04:10:56.922Z,3.50
2023-05-04T04:13:24.550Z,3.23
2023-05-04T04:15:53.506Z,3.23
2023-05-04T04:18:21.426Z,3.17
2023-05-04T04:20:49.023Z,3.00
2023-05-04T04:23:18.494Z,2.93
2023-05-04T04:25:46.330Z,3.87
2023-05-04T04:28:13.991Z,2.97
2023-05-04T04:30:41.764Z,2.93
2023-05-04T04:33:10.962Z,3.63
2023-05-04T04:35:38.643Z,3.63
2023-05-04T04:38:06.954Z,3.50
2023-05-04T04:40:34.593Z,3.17
2023-05-04T04:43:02.703Z,3.70
2023-05-04T04:45:31.766Z,3.50
2023-05-04T04:48:01.106Z,3.43
2023-05-04T04:50:30.175Z,3.37
2023-05-04T04:52:57.772Z,3.77
2023-05-04T04:55:26.170Z,3.67
2023-05-04T04:57:54.516Z,3.30
2023-05-04T05:00:23.991Z,3.70
2023-05-04T05:02:51.779Z,4.10
2023-05-04T05:05:19.691Z,3.77
2023-05-04T05:07:48.662Z,4.00
2023-05-04T05:10:16.582Z,3.43
2023-05-04T05:12:44.202Z,3.83
2023-05-04T05:15:12.645Z,3.80
2023-05-04T05:17:40.328Z,3.40
2023-05-04T05:20:10.672Z,3.97
2023-05-04T05:22:38.647Z,5.03
2023-05-04T05:25:08.811Z,4.20
2023-05-04T05:27:36.551Z,4.00
2023-05-04T05:30:05.873Z,4.03
2023-05-04T05:32:34.171Z,3.87
2023-05-04T05:35:02.160Z,3.70
2023-05-04T05:37:29.817Z,4.00
2023-05-04T05:39:57.376Z,3.60
2023-05-04T05:42:26.398Z,4.23
2023-05-04T05:44:53.999Z,4.00
2023-05-04T05:47:21.629Z,4.23
2023-05-04T05:49:49.208Z,4.50
2023-05-04T05:52:17.729Z,4.57
2023-05-04T05:54:47.690Z,4.73
2023-05-04T05:57:15.253Z,5.07
2023-05-04T05:59:44.714Z,4.57
2023-05-04T06:02:14.612Z,3.90
2023-05-04T06:04:42.573Z,4.10
2023-05-04T06:07:10.584Z,4.47
2023-05-04T06:09:38.145Z,4.03
2023-05-04T06:12:12.158Z,4.30
2023-05-04T06:14:39.888Z,4.23
2023-05-04T06:17:08.969Z,4.77
2023-05-04T06:19:36.888Z,4.63
2023-05-04T06:22:05.162Z,4.43
2023-05-04T06:24:33.443Z,4.57
2023-05-04T06:27:01.838Z,4.27
2023-05-04T06:29:29.501Z,4.17
2023-05-04T06:31:57.244Z,3.90
2023-05-04T06:34:26.342Z,4.20
2023-05-04T06:36:53.981Z,4.30
2023-05-04T06:39:21.656Z,4.63
2023-05-04T06:41:49.271Z,4.27
2023-05-04T06:44:17.557Z,4.17
2023-05-04T06:46:45.152Z,4.20
2023-05-04T06:49:12.800Z,4.20
2023-05-04T06:51:41.930Z,4.50
2023-05-04T06:54:09.584Z,4.30
2023-05-04T06:56:38.529Z,5.00
2023-05-04T06:59:06.506Z,4.87
2023-05-04T07:01:34.217Z,4.20
2023-05-04T07:04:01.982Z,4.10
2023-05-04T07:06:29.771Z,4.33
2023-05-04T07:08:58.694Z,4.33
2023-05-04T07:11:26.892Z,4.50
2023-05-04T07:13:54.484Z,4.90
2023-05-04T07:16:22.161Z,4.90
2023-05-04T07:18:49.796Z,5.13
2023-05-04T07:21:27.783Z,4.43
2023-05-04T07:23:58.455Z,4.57
2023-05-04T07:26:26.387Z,4.60
2023-05-04T07:28:54.254Z,4.33
2023-05-04T07:31:21.911Z,4.27
2023-05-04T07:33:50.243Z,4.40
2023-05-04T07:36:18.180Z,4.93
2023-05-04T07:38:45.799Z,4.93
2023-05-04T07:41:14.777Z,4.53
2023-05-04T07:43:42.363Z,5.10
2023-05-04T07:46:10.094Z,4.70
2023-05-04T07:48:37.703Z,4.90
2023-05-04T07:51:05.356Z,4.47
2023-05-04T07:53:32.961Z,4.40
2023-05-04T07:56:08.848Z,4.20
2023-05-04T07:58:38.036Z,4.33
2023-05-04T08:01:07.509Z,4.37
2023-05-04T08:03:35.166Z,4.67
2023-05-04T08:06:02.972Z,4.70
2023-05-04T08:08:30.702Z,4.53
2023-05-04T08:11:11.598Z,3.90
2023-05-04T08:13:47.699Z,4.27
2023-05-04T08:16:15.597Z,4.40
2023-05-04T08:18:43.450Z,4.40
2023-05-04T08:21:11.167Z,4.23
2023-05-04T08:23:38.749Z,5.00
2023-05-04T08:26:06.565Z,4.50
2023-05-04T08:28:36.838Z,4.53
2023-05-04T08:31:06.555Z,4.37
2023-05-04T08:33:34.485Z,4.23
2023-05-04T08:36:02.270Z,5.13
2023-05-04T08:38:29.931Z,4.70
2023-05-04T08:40:57.633Z,4.43
2023-05-04T08:43:25.290Z,5.03
2023-05-04T08:45:52.867Z,4.67
2023-05-04T08:48:22.153Z,4.27
2023-05-04T08:50:49.939Z,4.33
2023-05-04T08:53:20.032Z,4.90
2023-05-04T08:55:48.622Z,4.30
2023-05-04T08:58:18.019Z,4.87
2023-05-04T09:00:46.600Z,4.47
2023-05-04T09:03:14.448Z,5.40
2023-05-04T09:05:44.552Z,4.87
2023-05-04T09:08:12.313Z,5.37
2023-05-04T09:10:40.095Z,5.23
2023-05-04T09:13:08.375Z,5.10
2023-05-04T09:15:36.296Z,5.60
2023-05-04T09:18:05.569Z,5.30
2023-05-04T09:20:46.772Z,5.07
2023-05-04T09:23:15.036Z,5.73
2023-05-04T09:25:50.006Z,4.97
2023-05-04T09:28:18.895Z,4.83
2023-05-04T09:30:48.312Z,4.57
2023-05-04T09:33:16.326Z,4.80
2023-05-04T09:35:45.793Z,5.30
2023-05-04T09:38:14.597Z,5.63
2023-05-04T09:40:43.087Z,6.67
2023-05-04T09:43:10.754Z,5.37
2023-05-04T09:45:41.994Z,5.67
2023-05-04T09:48:16.942Z,5.60
2023-05-04T09:50:51.125Z,5.90
2023-05-04T09:53:21.929Z,5.53
2023-05-04T09:55:55.756Z,5.63
2023-05-04T09:58:24.617Z,5.40
2023-05-04T10:00:53.649Z,5.27
2023-05-04T10:03:21.900Z,5.60
2023-05-04T10:05:51.439Z,5.70
2023-05-04T10:08:19.863Z,5.63
2023-05-04T10:10:47.532Z,5.67
2023-05-04T10:13:15.527Z,5.33
2023-05-04T10:16:03.411Z,6.03
2023-05-04T10:18:42.496Z,5.60
2023-05-04T10:21:29.693Z,5.20
2023-05-04T10:24:24.214Z,5.00
2023-05-04T10:27:03.212Z,5.50
2023-05-04T10:29:34.285Z,5.10
2023-05-04T10:32:02.158Z,5.67
2023-05-04T10:34:31.014Z,5.60
2023-05-04T10:37:01.121Z,5.60
2023-05-04T10:39:31.393Z,5.20
2023-05-04T10:42:03.619Z,5.07
2023-05-04T10:44:32.654Z,5.00
2023-05-04T10:47:02.162Z,5.73
2023-05-04T10:49:30.676Z,5.47
2023-05-04T10:52:11.204Z,5.03
2023-05-04T10:54:39.312Z,5.40
2023-05-04T10:57:09.021Z,5.20
2023-05-04T10:59:37.742Z,5.07
2023-05-04T11:02:06.574Z,5.40
2023-05-04T11:04:34.891Z,4.40
2023-05-04T11:07:05.057Z,5.57
2023-05-04T11:09:38.299Z,4.87
2023-05-04T11:12:06.577Z,5.17
2023-05-04T11:14:37.708Z,4.90
2023-05-04T11:17:23.969Z,4.53
2023-05-04T11:19:54.173Z,4.43
2023-05-04T11:22:22.072Z,4.70
2023-05-04T11:24:51.304Z,4.73
2023-05-04T11:27:23.729Z,4.50
2023-05-04T11:29:58.064Z,4.60
2023-05-04T11:32:35.877Z,4.17
2023-05-04T11:35:04.415Z,4.77
2023-05-04T11:37:32.591Z,4.77
2023-05-04T11:40:02.874Z,4.23
2023-05-04T11:42:30.578Z,4.47
2023-05-04T11:44:58.245Z,3.80
2023-05-04T11:47:27.555Z,4.87
2023-05-04T11:49:55.336Z,4.30
2023-05-04T11:52:23.809Z,4.40
2023-05-04T11:54:56.861Z,4.40
2023-05-04T11:57:26.096Z,4.10
2023-05-04T11:59:53.705Z,4.00
2023-05-04T12:02:21.341Z,3.40
2023-05-04T12:04:49.174Z,4.07
2023-05-04T12:07:16.793Z,2.90
2023-05-04T12:09:45.672Z,3.10
2023-05-04T12:12:13.257Z,3.30
2023-05-04T12:14:49.713Z,3.40
2023-05-04T12:17:17.512Z,3.17
2023-05-04T12:19:49.163Z,3.30
2023-05-04T12:22:17.165Z,3.07
2023-05-04T12:24:44.812Z,2.87
2023-05-04T12:27:15.537Z,2.47
2023-05-04T12:29:43.181Z,3.10
2023-05-04T12:32:12.427Z,3.20
2023-05-04T12:34:40.531Z,3.50
2023-05-04T12:37:08.975Z,3.27
2023-05-04T12:39:36.654Z,2.97
2023-05-04T12:42:05.374Z,2.33
2023-05-04T12:44:33.587Z,2.80
2023-05-04T12:47:01.668Z,2.60
2023-05-04T12:49:30.945Z,3.40
2023-05-04T12:51:58.558Z,2.47
2023-05-04T12:54:26.409Z,2.13
2023-05-04T12:56:54.344Z,2.10
2023-05-04T12:59:22.584Z,2.20
2023-05-04T13:01:50.276Z,2.17
2023-05-04T13:04:17.947Z,2.83
2023-05-04T13:06:48.421Z,2.40
2023-05-04T13:09:17.021Z,2.30
2023-05-04T13:11:45.246Z,2.13
2023-05-04T13:14:14.433Z,2.20
2023-05-04T13:16:42.070Z,2.23
2023-05-04T13:19:09.671Z,2.10
2023-05-04T13:21:37.276Z,1.93
2023-05-04T13:24:07.833Z,2.30
2023-05-04T13:26:35.398Z,2.20
2023-05-04T13:29:03.556Z,1.83
2023-05-04T13:31:31.457Z,2.10
2023-05-04T13:33:59.135Z,1.93
2023-05-04T13:36:26.787Z,2.00
2023-05-04T13:38:54.445Z,2.17
2023-05-04T13:41:23.455Z,2.00
2023-05-04T13:43:51.105Z,1.90
2023-05-04T13:46:18.927Z,2.20
2023-05-04T13:48:46.521Z,1.87
2023-05-04T13:51:14.136Z,2.00
2023-05-04T13:53:41.729Z,1.80
2023-05-04T13:56:09.479Z,1.83
2023-05-04T13:58:38.427Z,2.30
2023-05-04T14:01:06.534Z,1.90
2023-05-04T14:03:34.292Z,2.03
2023-05-04T14:06:01.941Z,1.93
2023-05-04T14:08:29.559Z,1.80
2023-05-04T14:10:57.399Z,1.97
2023-05-04T14:13:25.048Z,2.20
2023-05-04T14:15:53.989Z,2.10
2023-05-04T14:18:21.659Z,2.00
2023-05-04T14:20:49.509Z,2.30
2023-05-04T14:23:17.111Z,1.90
2023-05-04T14:25:50.980Z,2.30
2023-05-04T14:28:18.648Z,2.40
2023-05-04T14:30:46.240Z,2.27
2023-05-04T14:33:15.298Z,1.70
2023-05-04T14:35:44.335Z,1.93
2023-05-04T14:38:13.316Z,2.50
2023-05-04T14:40:41.051Z,1.80
2023-05-04T14:43:08.746Z,2.00
2023-05-04T14:45:36.437Z,1.87
2023-05-04T14:48:04.182Z,1.83
2023-05-04T14:50:33.341Z,1.90
2023-05-04T14:53:01.042Z,2.00
2023-05-04T14:55:28.611Z,2.17
2023-05-04T14:57:56.213Z,2.30
2023-05-04T15:00:23.982Z,2.17
2023-05-04T15:02:51.706Z,2.07
2023-05-04T15:05:20.011Z,2.30
2023-05-04T15:07:49.212Z,2.00
2023-05-04T15:10:17.367Z,2.50
2023-05-04T15:12:45.359Z,2.40
2023-05-04T15:15:13.491Z,2.08
2023-05-04T15:17:41.195Z,2.40
2023-05-04T15:20:10.419Z,2.30
2023-05-04T15:22:38.267Z,2.35
2023-05-04T15:25:07.964Z,2.13
2023-05-04T15:27:35.691Z,2.20
2023-05-04T15:30:03.525Z,1.92
2023-05-04T15:32:31.548Z,2.60
2023-05-04T15:35:05.403Z,2.30
2023-05-04T15:37:33.892Z,1.90
2023-05-04T15:40:02.699Z,2.50
2023-05-04T15:42:31.865Z,2.00
2023-05-04T15:44:59.849Z,2.03
2023-05-04T15:47:27.687Z,2.15
2023-05-04T15:49:55.392Z,2.10
2023-05-04T15:52:23.847Z,2.17
2023-05-04T15:54:51.431Z,2.10
2023-05-04T15:57:19.089Z,2.60
2023-05-04T15:59:49.658Z,2.20
2023-05-04T16:02:17.564Z,2.10
2023-05-04T16:04:45.555Z,2.20
2023-05-04T16:07:13.295Z,2.30
2023-05-04T16:09:40.974Z,2.00
2023-05-04T16:12:08.989Z,1.80
2023-05-04T16:14:36.811Z,2.20
2023-05-04T16:17:05.910Z,2.07
2023-05-04T16:19:33.582Z,2.30
2023-05-04T16:22:01.250Z,2.37
2023-05-04T16:24:28.805Z,2.40
2023-05-04T16:26:56.363Z,2.10
2023-05-04T16:29:24.420Z,2.30
2023-05-04T16:31:52.055Z,2.10
2023-05-04T16:34:21.002Z,1.87
2023-05-04T16:36:49.018Z,2.20
2023-05-04T16:39:18.824Z,2.57
2023-05-04T16:41:48.336Z,2.23
2023-05-04T16:44:16.548Z,2.33
2023-05-04T16:46:44.516Z,2.20
2023-05-04T16:49:14.511Z,2.30
2023-05-04T16:51:46.715Z,2.33
2023-05-04T16:54:15.161Z,2.40
2023-05-04T16:56:43.255Z,2.43
2023-05-04T16:59:11.344Z,2.40
2023-05-04T17:01:38.912Z,2.10
2023-05-04T17:04:06.697Z,2.40
2023-05-04T17:06:34.289Z,2.20
2023-05-04T17:09:03.867Z,2.23
2023-05-04T17:11:32.329Z,2.47
2023-05-04T17:14:01.152Z,2.20
2023-05-04T17:16:28.795Z,2.40
2023-05-04T17:18:56.390Z,2.80
2023-05-04T17:21:24.030Z,2.80
2023-05-04T17:23:51.585Z,2.50
2023-05-04T17:26:21.148Z,2.33
2023-05-04T17:28:48.689Z,2.40
2023-05-04T17:31:16.272Z,2.57
2023-05-04T17:33:43.913Z,2.70
2023-05-04T17:36:12.402Z,2.70
2023-05-04T17:38:40.121Z,2.67
2023-05-04T17:41:09.676Z,2.60
2023-05-04T17:43:38.800Z,2.60
2023-05-04T17:46:06.425Z,2.60
2023-05-04T17:48:36.261Z,2.47
2023-05-04T17:51:04.220Z,2.37
2023-05-04T17:53:31.798Z,2.43
2023-05-04T17:55:59.367Z,2.50
2023-05-04T17:58:27.127Z,2.80
2023-05-04T18:00:56.027Z,2.30
2023-05-04T18:03:23.805Z,2.47
2023-05-04T18:05:51.440Z,2.73
2023-05-04T18:08:18.999Z,2.40
2023-05-04T18:10:48.395Z,3.43
2023-05-04T18:13:16.334Z,3.20
2023-05-04T18:15:44.033Z,3.17
2023-05-04T18:18:12.911Z,2.90
2023-05-04T18:20:40.470Z,2.67
2023-05-04T18:23:08.231Z,3.10
2023-05-04T18:25:37.512Z,2.77
2023-05-04T18:28:05.510Z,2.90
2023-05-04T18:30:33.500Z,2.53
2023-05-04T18:33:01.279Z,2.70
2023-05-04T18:35:30.333Z,2.87
2023-05-04T18:37:57.915Z,2.70
2023-05-04T18:40:25.506Z,3.10
2023-05-04T18:42:53.060Z,2.90
2023-05-04T18:45:20.657Z,2.60
2023-05-04T18:47:48.283Z,2.90
2023-05-04T18:50:16.106Z,2.30
2023-05-04T18:52:45.194Z,2.30
2023-05-04T18:55:12.854Z,2.87
2023-05-04T18:57:40.527Z,2.83
2023-05-04T19:00:09.636Z,2.57
2023-05-04T19:02:37.760Z,2.80
2023-05-04T19:05:05.845Z,2.73
2023-05-04T19:07:33.481Z,2.83
2023-05-04T19:10:02.385Z,2.53
2023-05-04T19:12:30.027Z,3.47
2023-05-04T19:14:57.589Z,3.20
2023-05-04T19:17:25.174Z,2.87
2023-05-04T19:19:52.816Z,2.70
2023-05-04T19:22:20.532Z,2.90
2023-05-04T19:24:50.455Z,3.23
2023-05-04T19:27:19.434Z,2.73
2023-05-04T19:29:47.581Z,3.10
2023-05-04T19:32:23.710Z,2.90
2023-05-04T19:34:53.030Z,2.80
2023-05-04T19:37:20.709Z,2.60
2023-05-04T19:39:48.285Z,2.93
2023-05-04T19:42:16.060Z,2.50
2023-05-04T19:44:45.016Z,2.63
2023-05-04T19:47:12.681Z,2.70
2023-05-04T19:49:40.269Z,2.90
2023-05-04T19:52:07.815Z,2.73
2023-05-04T19:54:38.108Z,2.80
2023-05-04T19:57:05.965Z,2.87
2023-05-04T19:59:33.874Z,2.43
2023-05-04T20:02:02.876Z,2.60
2023-05-04T20:04:30.475Z,2.73
2023-05-04T20:06:57.985Z,2.50
2023-05-04T20:09:25.606Z,2.50
2023-05-04T20:11:53.232Z,2.80
2023-05-04T20:14:20.771Z,2.33
2023-05-04T20:16:48.413Z,2.73
2023-05-04T20:19:17.694Z,3.53
2023-05-04T20:21:45.726Z,3.00
2023-05-04T20:24:13.566Z,2.80
2023-05-04T20:26:41.580Z,2.67
2023-05-04T20:29:09.390Z,2.97
2023-05-04T20:31:37.212Z,2.67
2023-05-04T20:34:04.869Z,2.87
2023-05-04T20:36:34.265Z,2.73
2023-05-04T20:39:02.578Z,2.77
2023-05-04T20:41:32.319Z,3.10
2023-05-04T20:44:00.224Z,2.90
2023-05-04T20:46:28.108Z,2.83
2023-05-04T20:48:56.708Z,2.60
2023-05-04T20:51:24.870Z,2.63
2023-05-04T20:53:54.073Z,2.93
2023-05-04T20:56:22.030Z,2.67
2023-05-04T20:58:49.774Z,3.00
2023-05-04T21:01:17.544Z,2.87
2023-05-04T21:03:45.502Z,3.03
2023-05-04T21:06:13.382Z,2.60
2023-05-04T21:08:41.245Z,2.60
2023-05-04T21:11:10.524Z,2.90
2023-05-04T21:13:38.408Z,2.80
2023-05-04T21:16:06.742Z,3.00
2023-05-04T21:18:34.632Z,2.80
2023-05-04T21:21:03.908Z,2.70
2023-05-04T21:23:31.729Z,2.67
2023-05-04T21:26:03.262Z,2.80
2023-05-04T21:28:33.000Z,2.70
2023-05-04T21:31:00.899Z,2.57
2023-05-04T21:33:28.777Z,2.73
2023-05-04T21:35:57.249Z,2.80
2023-05-04T21:38:25.263Z,3.03
2023-05-04T21:40:52.909Z,2.60
2023-05-04T21:43:20.616Z,2.83
2023-05-04T21:45:49.832Z,2.80
2023-05-04T21:48:17.718Z,2.70
2023-05-04T21:50:45.509Z,2.90
2023-05-04T21:53:13.308Z,2.90
2023-05-04T21:55:41.134Z,3.10
2023-05-04T21:58:08.908Z,2.40
2023-05-04T22:00:37.089Z,2.70
2023-05-04T22:03:06.296Z,2.90
2023-05-04T22:05:34.302Z,2.80
2023-05-04T22:08:02.160Z,2.77
2023-05-04T22:10:29.841Z,2.90
2023-05-04T22:12:57.621Z,3.00
2023-05-04T22:15:31.657Z,2.70
2023-05-04T22:18:07.470Z,3.30
2023-05-04T22:20:38.980Z,2.60
2023-05-04T22:23:06.962Z,2.90
2023-05-04T22:25:34.524Z,3.37
2023-05-04T22:28:02.153Z,3.17
2023-05-04T22:30:29.990Z,2.63
2023-05-04T22:32:57.642Z,2.80
2023-05-04T22:35:26.730Z,2.63
2023-05-04T22:37:54.321Z,2.90
2023-05-04T22:40:22.402Z,2.97
2023-05-04T22:42:50.033Z,3.20
2023-05-04T22:45:18.578Z,3.40
2023-05-04T22:47:46.698Z,3.10
2023-05-04T22:50:14.774Z,3.00
2023-05-04T22:52:43.833Z,2.80
2023-05-04T22:55:11.976Z,3.20
2023-05-04T22:57:39.566Z,3.40
2023-05-04T23:00:10.203Z,3.10
2023-05-04T23:02:38.146Z,2.90
2023-05-04T23:05:06.900Z,2.90
2023-05-04T23:07:34.436Z,2.40
2023-05-04T23:10:03.498Z,2.93
2023-05-04T23:12:31.484Z,3.00
2023-05-04T23:14:59.156Z,2.93
2023-05-04T23:17:26.849Z,2.90
2023-05-04T23:19:54.450Z,2.97
2023-05-04T23:22:22.036Z,3.10
2023-05-04T23:24:49.617Z,3.30
2023-05-04T23:27:18.701Z,3.13
2023-05-04T23:29:46.267Z,3.10
2023-05-04T23:32:13.854Z,3.40
2023-05-04T23:34:41.462Z,3.47
2023-05-04T23:37:09.080Z,3.17
2023-05-04T23:39:36.773Z,2.80
2023-05-04T23:42:04.521Z,3.20
2023-05-04T23:44:33.513Z,2.90
2023-05-04T23:47:01.051Z,3.03
2023-05-04T23:49:28.683Z,2.70
2023-05-04T23:51:56.314Z,2.70
2023-05-04T23:54:23.857Z,3.30
2023-05-04T23:56:51.444Z,2.90
2023-05-04T23:59:19.159Z,3.20
